Time;durP1;ratioP1;P1;durP2;ratioP2;P2;SDS_P1;SDS_P2;PMS_P1;PMS_P2;Temp;Humidity;BMP_temperature;BMP_pressure;BME280_temperature;BME280_humidity;BME280_pressure;Samples;Min_cycle;Max_cycle;Signal;HPM_P1;HPM_P2
2021/12/14 00:02:18;;;;;;;102.13;15.73;;;2.20;99.90;;;;;;5090416;28;20028;-59
2021/12/14 00:04:44;;;;;;;91.07;15.25;;;2.20;99.90;;;;;;5090480;28;20031;-59
2021/12/14 00:07:17;;;;;;;167.23;19.30;;;2.20;99.90;;;;;;5091571;28;20028;-59
2021/12/14 00:09:44;;;;;;;153.60;19.20;;;2.20;99.90;;;;;;5091702;28;20069;-59
2021/12/14 00:15:04;;;;;;;86.38;16.77;;;2.20;99.90;;;;;;5091478;28;20487;-59
2021/12/14 00:17:36;;;;;;;109.07;16.10;;;2.20;99.90;;;;;;5091561;28;20622;-59
2021/12/14 00:20:19;;;;;;;93.07;16.88;;;2.20;99.90;;;;;;5091370;28;20038;-59
2021/12/14 00:25:33;;;;;;;48.38;14.27;;;2.20;99.90;;;;;;5090213;28;20024;-59
2021/12/14 00:28:05;;;;;;;46.70;13.55;;;2.30;99.90;;;;;;5090728;28;20026;-59
2021/12/14 00:30:33;;;;;;;70.97;15.05;;;2.30;99.90;;;;;;5090361;28;20490;-59
2021/12/14 00:32:59;;;;;;;79.15;13.32;;;2.30;99.90;;;;;;5088832;28;20271;-59
2021/12/14 00:35:25;;;;;;;50.03;12.60;;;2.30;99.90;;;;;;5088951;28;20328;-59
2021/12/14 00:37:53;;;;;;;82.40;13.00;;;2.30;99.90;;;;;;5090943;28;20019;-59
2021/12/14 00:40:25;;;;;;;52.15;11.40;;;2.30;99.90;;;;;;5091077;28;20024;-59
2021/12/14 00:42:52;;;;;;;69.97;12.82;;;2.30;99.90;;;;;;5089503;28;20024;-59
2021/12/14 00:45:19;;;;;;;72.35;12.50;;;2.30;99.90;;;;;;5088959;28;20024;-59
2021/12/14 00:47:49;;;;;;;107.65;15.05;;;2.30;99.90;;;;;;5087274;28;20032;-59
2021/12/14 00:50:15;;;;;;;26.23;12.05;;;2.30;99.90;;;;;;5088972;28;20038;-59
2021/12/14 00:52:42;;;;;;;44.47;12.73;;;2.30;99.90;;;;;;5088847;28;20446;-59
2021/12/14 00:55:11;;;;;;;83.93;14.07;;;2.40;99.90;;;;;;5088786;28;20103;-59
2021/12/14 00:57:37;;;;;;;72.72;14.00;;;2.40;99.90;;;;;;5088762;28;20054;-59
2021/12/14 01:00:14;;;;;;;64.40;14.02;;;2.40;99.90;;;;;;5090023;28;20016;-59
2021/12/14 01:02:42;;;;;;;69.30;13.27;;;2.40;99.90;;;;;;5090835;28;20024;-59
2021/12/14 01:05:14;;;;;;;37.25;12.30;;;2.40;99.90;;;;;;5092989;28;20036;-59
2021/12/14 01:07:40;;;;;;;47.45;12.82;;;2.40;99.90;;;;;;5092791;28;20031;-59
2021/12/14 01:10:25;;;;;;;29.90;11.57;;;2.50;99.90;;;;;;5093760;28;20066;-59
2021/12/14 01:12:56;;;;;;;39.47;13.90;;;2.50;99.90;;;;;;5092479;28;20535;-59
2021/12/14 01:15:42;;;;;;;70.20;13.23;;;2.50;99.90;;;;;;5092586;28;20422;-59
2021/12/14 01:18:27;;;;;;;91.88;13.82;;;2.40;99.90;;;;;;5093089;28;20061;-59
2021/12/14 01:20:59;;;;;;;43.70;13.07;;;2.40;99.90;;;;;;5093169;28;20275;-59
2021/12/14 01:23:32;;;;;;;40.80;13.15;;;2.50;99.90;;;;;;5092423;28;20028;-59
2021/12/14 01:26:11;;;;;;;44.88;12.75;;;2.50;99.90;;;;;;5093008;28;20032;-59
2021/12/14 01:28:39;;;;;;;43.97;12.85;;;2.50;99.90;;;;;;5093721;28;20031;-59
2021/12/14 01:31:21;;;;;;;22.05;12.70;;;2.50;99.90;;;;;;5093130;28;20035;-59
2021/12/14 01:33:53;;;;;;;20.48;12.80;;;2.50;99.90;;;;;;5093327;28;20023;-59
2021/12/14 01:36:45;;;;;;;54.50;15.40;;;2.60;99.90;;;;;;5091886;28;20069;-59
2021/12/14 01:42:14;;;;;;;85.45;15.70;;;2.60;99.90;;;;;;5093131;28;20024;-59
2021/12/14 01:44:50;;;;;;;150.60;37.00;;;2.60;99.90;;;;;;5093351;28;20410;-59
2021/12/14 01:47:24;;;;;;;68.50;16.15;;;2.60;99.90;;;;;;5093016;28;20024;-59
2021/12/14 01:49:50;;;;;;;114.13;17.83;;;2.60;99.90;;;;;;5092916;28;20481;-59
2021/12/14 01:52:21;;;;;;;100.25;13.57;;;2.60;99.90;;;;;;5092909;28;20024;-59
2021/12/14 01:54:51;;;;;;;93.32;14.68;;;2.60;99.90;;;;;;5092961;28;20024;-59
2021/12/14 01:57:20;;;;;;;79.63;14.25;;;2.60;99.90;;;;;;5092809;28;20024;-59
2021/12/14 01:59:54;;;;;;;107.35;16.85;;;2.60;99.90;;;;;;5092972;28;20026;-59
2021/12/14 02:02:42;;;;;;;69.60;14.15;;;2.50;99.90;;;;;;5091321;28;20016;-59
2021/12/14 02:05:28;;;;;;;88.50;18.35;;;2.50;99.90;;;;;;5092694;28;20392;-59
2021/12/14 02:07:56;;;;;;;84.22;15.82;;;2.50;99.90;;;;;;5092696;28;20360;-59
2021/12/14 02:10:27;;;;;;;107.50;17.52;;;2.50;99.90;;;;;;5092396;28;20399;-59
2021/12/14 02:12:54;;;;;;;78.97;16.75;;;2.50;99.90;;;;;;5092548;28;20020;-59
2021/12/14 02:15:30;;;;;;;125.47;18.50;;;2.50;99.90;;;;;;5092137;28;20039;-59
2021/12/14 02:18:04;;;;;;;125.47;28.90;;;2.40;99.90;;;;;;5092503;28;20446;-59
2021/12/14 02:20:35;;;;;;;136.00;22.92;;;2.50;99.90;;;;;;5092083;28;20229;-59
2021/12/14 02:23:02;;;;;;;56.97;16.23;;;2.50;99.90;;;;;;5091162;28;20020;-59
2021/12/14 02:25:27;;;;;;;69.35;15.07;;;2.50;99.90;;;;;;5093226;28;20081;-59
2021/12/14 02:27:59;;;;;;;22.00;12.98;;;2.50;99.90;;;;;;5093575;28;20028;-59
2021/12/14 02:30:29;;;;;;;19.17;11.52;;;2.50;99.90;;;;;;5092831;28;20020;-59
2021/12/14 02:32:56;;;;;;;20.63;12.35;;;2.60;99.90;;;;;;5090900;28;20490;-59
2021/12/14 02:35:25;;;;;;;62.92;14.95;;;2.60;99.90;;;;;;5091915;28;20040;-59
2021/12/14 02:37:54;;;;;;;48.40;14.18;;;2.60;99.90;;;;;;5092827;28;20096;-59
2021/12/14 02:40:53;;;;;;;50.72;13.40;;;2.60;99.90;;;;;;5092847;28;20466;-59
2021/12/14 02:43:17;;;;;;;31.90;13.07;;;2.60;99.90;;;;;;5092555;28;20039;-59
2021/12/14 02:45:43;;;;;;;39.95;14.05;;;2.60;99.90;;;;;;5093092;28;20111;-59
2021/12/14 02:48:09;;;;;;;70.07;24.83;;;2.70;99.90;;;;;;5092840;28;20024;-59
2021/12/14 02:50:35;;;;;;;28.50;13.60;;;2.60;99.90;;;;;;5093243;28;20395;-59
2021/12/14 02:53:02;;;;;;;23.75;12.13;;;2.70;99.90;;;;;;5090728;28;20024;-59
2021/12/14 02:55:28;;;;;;;41.33;17.50;;;2.80;99.90;;;;;;5092333;28;20024;-59
2021/12/14 02:57:58;;;;;;;38.22;16.65;;;2.70;99.90;;;;;;5092338;28;20099;-59
2021/12/14 03:00:46;;;;;;;18.33;10.20;;;2.70;99.90;;;;;;5092473;28;20695;-59
2021/12/14 03:03:14;;;;;;;14.18;9.57;;;2.70;99.90;;;;;;5092710;28;20024;-59
2021/12/14 03:05:42;;;;;;;13.57;9.10;;;2.80;99.90;;;;;;5092929;28;20039;-59
2021/12/14 03:08:18;;;;;;;178.70;47.60;;;2.80;99.90;;;;;;5092709;28;20028;-59
2021/12/14 03:13:36;;;;;;;17.48;11.32;;;2.80;99.90;;;;;;5092683;28;20093;-59
2021/12/14 03:16:06;;;;;;;17.98;10.15;;;2.80;99.90;;;;;;5092287;28;20457;-59
2021/12/14 03:18:38;;;;;;;113.47;26.10;;;2.80;99.90;;;;;;5092603;28;20024;-59
2021/12/14 03:21:15;;;;;;;12.02;8.30;;;2.80;99.90;;;;;;5092527;28;20101;-59
2021/12/14 03:23:57;;;;;;;14.60;8.50;;;2.80;99.90;;;;;;5092520;28;20028;-60
2021/12/14 03:26:26;;;;;;;498.88;114.80;;;2.80;99.90;;;;;;5091769;28;20100;-59
2021/12/14 03:28:55;;;;;;;27.23;13.43;;;2.80;99.90;;;;;;5092543;28;20051;-59
2021/12/14 03:31:31;;;;;;;29.67;11.93;;;2.90;99.90;;;;;;5092219;28;20028;-59
2021/12/14 03:34:11;;;;;;;33.40;11.88;;;2.80;99.90;;;;;;5092273;28;20032;-60
2021/12/14 03:36:45;;;;;;;75.22;23.15;;;2.80;99.90;;;;;;5092223;28;20020;-59
2021/12/14 03:39:21;;;;;;;111.28;26.40;;;2.80;99.90;;;;;;5092148;28;20045;-59
2021/12/14 03:41:56;;;;;;;16.77;9.45;;;2.80;99.90;;;;;;5092291;28;20028;-59
2021/12/14 03:44:48;;;;;;;172.05;46.65;;;2.70;99.90;;;;;;5091699;28;20036;-59
2021/12/14 03:47:22;;;;;;;94.10;25.92;;;2.70;99.90;;;;;;5091837;28;20051;-59
2021/12/14 03:49:57;;;;;;;51.75;18.88;;;2.70;99.90;;;;;;5092241;28;20020;-59
2021/12/14 03:52:29;;;;;;;60.40;17.75;;;2.70;99.90;;;;;;5091877;28;20516;-59
2021/12/14 03:55:00;;;;;;;27.35;13.23;;;2.70;99.90;;;;;;5091808;28;21002;-59
2021/12/14 03:57:27;;;;;;;29.40;11.38;;;2.60;99.90;;;;;;5092024;28;20483;-59
2021/12/14 03:59:58;;;;;;;41.95;18.08;;;2.60;99.90;;;;;;5091428;28;20054;-59
2021/12/14 04:02:24;;;;;;;31.20;11.98;;;2.60;99.90;;;;;;5090657;28;20528;-58
2021/12/14 04:04:57;;;;;;;27.17;10.75;;;2.60;99.90;;;;;;5090524;28;20020;-59
2021/12/14 04:07:23;;;;;;;27.33;12.45;;;2.70;99.90;;;;;;5090503;28;20479;-59
2021/12/14 04:09:51;;;;;;;13.45;8.55;;;2.70;99.90;;;;;;5091096;28;20032;-59
2021/12/14 04:12:19;;;;;;;33.13;13.18;;;2.80;99.90;;;;;;5091585;28;20124;-59
2021/12/14 04:14:49;;;;;;;34.28;12.77;;;2.80;99.90;;;;;;5091132;28;20050;-59
2021/12/14 04:17:15;;;;;;;11.93;7.03;;;2.90;99.90;;;;;;5090374;28;20085;-59
2021/12/14 04:19:41;;;;;;;31.33;12.95;;;2.90;99.90;;;;;;5091665;28;20016;-59
2021/12/14 04:22:29;;;;;;;33.42;12.43;;;2.90;99.90;;;;;;5091219;28;20027;-59
2021/12/14 04:25:00;;;;;;;15.13;9.88;;;2.90;99.90;;;;;;5090151;28;20359;-59
2021/12/14 04:27:29;;;;;;;22.83;10.75;;;2.90;99.90;;;;;;5091500;28;20020;-59
2021/12/14 04:29:55;;;;;;;16.90;10.60;;;2.90;99.90;;;;;;5091455;28;20019;-59
2021/12/14 04:32:22;;;;;;;14.70;8.43;;;2.90;99.90;;;;;;5090677;28;20100;-59
2021/12/14 04:34:50;;;;;;;38.70;9.27;;;2.90;99.90;;;;;;5090412;28;20111;-59
2021/12/14 04:37:19;;;;;;;35.80;17.83;;;2.90;99.90;;;;;;5091514;28;20411;-59
2021/12/14 04:40:18;;;;;;;85.07;12.00;;;2.90;99.90;;;;;;5093687;28;20042;-59
2021/12/14 04:54:01;;;;;;;59.17;11.63;;;2.90;99.90;;;;;;5092117;28;20043;-59
2021/12/14 04:56:33;;;;;;;27.75;9.60;;;2.90;99.90;;;;;;5094098;28;20399;-60
2021/12/14 04:59:07;;;;;;;23.15;10.25;;;2.90;99.90;;;;;;5093754;28;20077;-60
2021/12/14 05:01:34;;;;;;;;;;;3.00;99.90;;;;;;5094139;28;20024;-60
2021/12/14 05:04:07;;;;;;;20.63;8.77;;;3.10;99.90;;;;;;5093703;28;19951;-58
2021/12/14 05:06:48;;;;;;;23.13;9.52;;;3.10;99.90;;;;;;5093940;28;20032;-58
2021/12/14 05:11:46;;;;;;;122.40;17.83;;;3.10;99.90;;;;;;5093801;28;20062;-58
2021/12/14 05:14:12;;;;;;;46.85;10.50;;;3.00;99.90;;;;;;5093588;28;20024;-57
2021/12/14 05:16:40;;;;;;;42.80;9.95;;;3.00;99.90;;;;;;5090727;28;20052;-58
2021/12/14 05:19:07;;;;;;;24.48;8.20;;;3.00;99.90;;;;;;5093523;28;20028;-58
2021/12/14 05:21:37;;;;;;;19.45;8.27;;;3.10;99.90;;;;;;5093368;28;20360;-57
2021/12/14 05:24:12;;;;;;;12.02;8.15;;;3.10;99.90;;;;;;5093231;28;20012;-57
2021/12/14 05:26:38;;;;;;;11.52;8.30;;;3.10;99.90;;;;;;5093511;28;20088;-56
2021/12/14 05:29:05;;;;;;;60.58;10.30;;;3.10;99.90;;;;;;5091255;28;20024;-58
2021/12/14 05:31:31;;;;;;;27.58;8.52;;;3.00;99.90;;;;;;5092803;28;20032;-57
2021/12/14 05:33:57;;;;;;;43.40;10.52;;;2.90;99.90;;;;;;5092901;28;20701;-59
2021/12/14 05:36:24;;;;;;;27.17;8.55;;;2.90;99.90;;;;;;5093228;28;20028;-59
2021/12/14 05:39:05;;;;;;;24.30;9.93;;;2.90;99.90;;;;;;5091776;28;20362;-57
2021/12/14 05:44:17;;;;;;;29.08;9.52;;;2.90;99.90;;;;;;5093092;28;20475;-58
2021/12/14 05:46:50;;;;;;;30.92;10.90;;;2.90;99.90;;;;;;5093144;28;20036;-57
2021/12/14 05:49:21;;;;;;;100.30;11.18;;;2.90;99.90;;;;;;5092526;28;20066;-57
2021/12/14 05:51:49;;;;;;;113.72;13.85;;;2.90;99.90;;;;;;5092763;28;20031;-58
2021/12/14 05:54:24;;;;;;;142.93;13.10;;;2.80;99.90;;;;;;5091976;28;20028;-58
2021/12/14 05:56:51;;;;;;;17.65;9.77;;;2.70;99.90;;;;;;5091725;28;20028;-57
2021/12/14 05:59:23;;;;;;;24.67;9.27;;;2.80;99.90;;;;;;5092677;28;20017;-58
2021/12/14 06:01:50;;;;;;;40.13;12.15;;;2.80;99.90;;;;;;5091518;28;20556;-58
2021/12/14 06:04:27;;;;;;;36.00;11.30;;;2.80;99.90;;;;;;5092717;28;20494;-58
2021/12/14 06:06:56;;;;;;;33.40;10.50;;;2.70;99.90;;;;;;5092684;28;20069;-57
2021/12/14 06:09:30;;;;;;;33.65;13.10;;;2.80;99.90;;;;;;5092505;28;20118;-58
2021/12/14 06:12:01;;;;;;;37.88;13.02;;;2.80;99.90;;;;;;5092609;28;20409;-57
2021/12/14 06:14:29;;;;;;;93.60;15.00;;;2.90;99.90;;;;;;5092985;28;20020;-58
2021/12/14 06:16:58;;;;;;;179.40;37.40;;;2.90;99.90;;;;;;5092247;28;20038;-58
2021/12/14 06:19:48;;;;;;;220.77;28.73;;;2.90;99.90;;;;;;5092465;28;20038;-58
2021/12/14 06:22:17;;;;;;;89.18;17.13;;;2.90;99.90;;;;;;5092345;28;20020;-58
2021/12/14 06:24:46;;;;;;;45.22;10.32;;;2.90;99.90;;;;;;5091053;28;20038;-57
2021/12/14 06:27:17;;;;;;;16.95;8.15;;;2.90;99.90;;;;;;5092070;28;20089;-59
2021/12/14 06:29:55;;;;;;;52.75;11.15;;;3.00;99.90;;;;;;5092299;28;20054;-58
2021/12/14 06:32:25;;;;;;;25.48;10.23;;;3.00;99.90;;;;;;5092189;28;20329;-58
2021/12/14 06:34:57;;;;;;;85.43;11.20;;;3.00;99.90;;;;;;5092207;28;20102;-57
2021/12/14 06:40:29;;;;;;;;;;;3.00;99.90;;;;;;5092546;28;20478;-59
2021/12/14 06:43:00;;;;;;;19.38;9.10;;;3.10;99.90;;;;;;5092207;28;19949;-59
2021/12/14 06:45:34;;;;;;;83.35;9.13;;;3.10;99.90;;;;;;5090622;28;20062;-58
2021/12/14 06:48:08;;;;;;;45.85;7.47;;;3.00;99.90;;;;;;5091604;28;20033;-57
2021/12/14 06:50:46;;;;;;;7.13;6.00;;;3.00;99.90;;;;;;5091967;28;20028;-56
2021/12/14 06:53:16;;;;;;;10.40;5.63;;;3.00;99.90;;;;;;5091875;28;20027;-57
2021/12/14 06:55:44;;;;;;;12.85;6.95;;;3.00;99.90;;;;;;5091721;28;20055;-56
2021/12/14 06:58:16;;;;;;;15.77;8.75;;;3.00;99.90;;;;;;5091497;28;20564;-59
2021/12/14 07:00:58;;;;;;;33.40;9.07;;;3.00;99.90;;;;;;5090989;28;20467;-58
2021/12/14 07:03:43;;;;;;;8.60;6.78;;;2.90;99.90;;;;;;5091757;28;20019;-57
2021/12/14 07:06:37;;;;;;;10.30;6.20;;;3.00;99.90;;;;;;5091303;28;20020;-59
2021/12/14 07:09:16;;;;;;;14.25;5.93;;;3.10;99.90;;;;;;5091379;28;20024;-59
2021/12/14 07:11:54;;;;;;;9.43;6.50;;;3.10;99.90;;;;;;5091416;28;20060;-57
2021/12/14 07:14:32;;;;;;;8.57;6.35;;;3.10;99.90;;;;;;5091341;28;20031;-58
2021/12/14 07:17:02;;;;;;;7.10;6.18;;;3.10;99.90;;;;;;5090798;28;20164;-58
2021/12/14 07:20:02;;;;;;;6.40;5.25;;;3.10;99.90;;;;;;5091275;28;20066;-58
2021/12/14 07:22:43;;;;;;;8.55;7.10;;;3.10;99.90;;;;;;5088200;28;20059;-57
2021/12/14 07:25:20;;;;;;;6.93;6.18;;;3.10;99.90;;;;;;5091136;28;20020;-58
2021/12/14 07:27:58;;;;;;;8.02;6.53;;;3.20;99.90;;;;;;5091206;28;20034;-58
2021/12/14 07:30:29;;;;;;;12.23;7.43;;;3.10;99.90;;;;;;5091111;28;20035;-58
2021/12/14 07:33:12;;;;;;;10.43;7.53;;;3.10;99.90;;;;;;5091245;28;20030;-58
2021/12/14 07:35:57;;;;;;;15.73;8.67;;;3.10;99.90;;;;;;5091078;28;20020;-57
2021/12/14 07:38:27;;;;;;;12.73;8.55;;;3.10;99.90;;;;;;5089805;28;20529;-57
2021/12/14 07:41:24;;;;;;;30.45;13.35;;;3.10;99.90;;;;;;5090881;28;20031;-58
2021/12/14 07:43:53;;;;;;;19.08;10.52;;;3.00;99.90;;;;;;5080143;28;20036;-58
2021/12/14 07:46:23;;;;;;;26.80;11.07;;;3.10;99.90;;;;;;5089319;28;20467;-58
2021/12/14 07:48:53;;;;;;;13.65;10.10;;;3.10;99.90;;;;;;5090929;28;20016;-58
2021/12/14 07:51:22;;;;;;;19.15;9.52;;;3.10;99.90;;;;;;5090665;28;20338;-58
2021/12/14 07:53:58;;;;;;;30.98;7.57;;;3.20;99.90;;;;;;5090848;28;20016;-55
2021/12/14 07:56:46;;;;;;;10.23;7.15;;;3.20;99.90;;;;;;5090680;28;20525;-59
2021/12/14 07:59:17;;;;;;;28.98;8.70;;;3.20;99.90;;;;;;5090746;28;20028;-59
2021/12/14 08:01:48;;;;;;;49.90;9.88;;;3.30;99.90;;;;;;5090541;28;20024;-58
2021/12/14 08:04:14;;;;;;;31.30;10.68;;;3.20;99.90;;;;;;5090517;28;20039;-58
2021/12/14 08:06:48;;;;;;;63.33;9.90;;;3.20;99.90;;;;;;5090625;28;20308;-57
2021/12/14 08:09:44;;;;;;;20.98;8.52;;;3.20;99.90;;;;;;5088937;28;20040;-58
2021/12/14 08:12:10;;;;;;;18.40;9.00;;;3.30;99.90;;;;;;5088978;28;20028;-58
2021/12/14 08:14:36;;;;;;;13.38;7.03;;;3.40;99.90;;;;;;5090495;28;20487;-58
2021/12/14 08:17:08;;;;;;;12.88;6.88;;;3.60;99.90;;;;;;5089829;28;20123;-58
2021/12/14 08:19:40;;;;;;;72.25;12.25;;;3.70;99.90;;;;;;5090721;28;20031;-58
2021/12/14 08:22:13;;;;;;;20.02;7.18;;;3.70;99.90;;;;;;5089015;28;20072;-58
2021/12/14 08:24:46;;;;;;;38.38;7.45;;;3.60;99.90;;;;;;5090340;28;20107;-56
2021/12/14 08:27:23;;;;;;;50.17;7.30;;;3.60;99.90;;;;;;5090408;28;20055;-57
2021/12/14 08:29:55;;;;;;;46.60;6.43;;;3.70;99.90;;;;;;5090419;28;20020;-57
2021/12/14 08:32:24;;;;;;;47.30;6.53;;;3.70;99.90;;;;;;5090111;28;20035;-57
2021/12/14 08:34:53;;;;;;;36.15;6.25;;;3.70;99.90;;;;;;5088998;28;20024;-57
2021/12/14 08:37:26;;;;;;;40.97;6.47;;;3.70;99.90;;;;;;5089987;28;20073;-58
2021/12/14 08:40:10;;;;;;;35.90;6.78;;;3.80;99.90;;;;;;5090245;28;20533;-58
2021/12/14 08:42:41;;;;;;;6.32;5.55;;;3.90;99.90;;;;;;5090258;28;20410;-57
2021/12/14 08:45:33;;;;;;;40.47;6.05;;;3.90;99.90;;;;;;5090219;28;20184;-58
2021/12/14 08:48:02;;;;;;;33.63;6.40;;;4.00;99.90;;;;;;5088847;28;20494;-58
2021/12/14 08:50:30;;;;;;;41.80;7.47;;;4.10;99.90;;;;;;5090006;28;20056;-58
2021/12/14 08:52:57;;;;;;;61.55;6.13;;;4.10;99.90;;;;;;5090413;28;20020;-58
2021/12/14 08:55:27;;;;;;;54.20;6.50;;;4.00;99.90;;;;;;5088650;28;20035;-58
2021/12/14 08:57:53;;;;;;;44.75;6.65;;;3.90;99.90;;;;;;5090061;28;20024;-58
2021/12/14 09:00:33;;;;;;;75.07;7.35;;;3.90;99.90;;;;;;5090062;28;20040;-58
2021/12/14 09:03:00;;;;;;;26.63;8.30;;;3.70;99.90;;;;;;5089957;28;20013;-57
2021/12/14 09:05:37;;;;;;;56.90;12.52;;;3.80;99.90;;;;;;5090097;28;20158;-56
2021/12/14 09:08:04;;;;;;;142.93;13.05;;;3.80;99.90;;;;;;5089971;28;20020;-58
2021/12/14 09:10:33;;;;;;;50.95;10.90;;;3.80;99.90;;;;;;5089880;28;20383;-58
2021/12/14 09:13:04;;;;;;;84.82;11.23;;;3.80;99.90;;;;;;5089949;28;20020;-58
2021/12/14 09:15:34;;;;;;;41.00;7.72;;;3.90;99.90;;;;;;5089619;28;20040;-58
2021/12/14 09:18:00;;;;;;;71.03;8.70;;;3.80;99.90;;;;;;5089787;28;20012;-58
2021/12/14 09:20:31;;;;;;;76.10;8.30;;;3.90;99.90;;;;;;5090043;28;20418;-56
2021/12/14 09:23:10;;;;;;;143.10;17.63;;;3.70;99.90;;;;;;5090636;28;20111;-58
2021/12/14 09:25:37;;;;;;;110.65;11.10;;;3.70;99.90;;;;;;5093562;28;20088;-58
2021/12/14 09:28:05;;;;;;;165.73;9.32;;;3.70;99.90;;;;;;5093342;28;20035;-57
2021/12/14 09:30:36;;;;;;;23.65;6.60;;;3.70;99.90;;;;;;5093440;28;20178;-58
2021/12/14 09:33:03;;;;;;;90.00;7.80;;;3.90;99.90;;;;;;5093401;28;20020;-58
2021/12/14 09:35:34;;;;;;;149.32;8.60;;;4.00;99.90;;;;;;5091809;28;20036;-57
2021/12/14 09:38:00;;;;;;;79.95;9.00;;;3.90;99.90;;;;;;5093170;28;20016;-57
2021/12/14 09:40:34;;;;;;;180.38;8.23;;;3.90;99.90;;;;;;5093198;28;20082;-59
2021/12/14 09:43:00;;;;;;;224.57;16.33;;;3.90;99.90;;;;;;5093045;28;20012;-57
2021/12/14 09:45:33;;;;;;;163.82;10.60;;;3.70;99.90;;;;;;5093162;28;20024;-58
2021/12/14 09:48:04;;;;;;;156.80;10.52;;;3.70;99.90;;;;;;5092906;28;20032;-57
2021/12/14 09:50:34;;;;;;;81.65;9.85;;;3.60;99.90;;;;;;5093183;28;20021;-58
2021/12/14 09:53:01;;;;;;;105.30;8.57;;;3.50;99.90;;;;;;5092681;28;20570;-58
2021/12/14 09:55:32;;;;;;;21.27;4.88;;;3.60;99.90;;;;;;5091682;28;20487;-58
2021/12/14 09:58:04;;;;;;;47.58;7.13;;;3.90;99.90;;;;;;5092783;28;20034;-58
2021/12/14 10:01:00;;;;;;;14.85;5.15;;;4.10;99.90;;;;;;5092841;28;20169;-58
2021/12/14 10:03:26;;;;;;;24.13;4.78;;;4.20;99.90;;;;;;5089511;28;20114;-58
2021/12/14 10:05:59;;;;;;;73.07;4.80;;;4.30;99.90;;;;;;5092857;28;20459;-59
2021/12/14 10:08:31;;;;;;;139.20;9.18;;;4.20;99.90;;;;;;5091556;28;20028;-58
2021/12/14 10:11:09;;;;;;;85.88;6.65;;;4.10;99.90;;;;;;5092603;28;20027;-58
2021/12/14 10:13:42;;;;;;;136.18;9.02;;;4.10;99.90;;;;;;5092420;28;20030;-58
2021/12/14 10:16:09;;;;;;;113.82;7.22;;;4.20;99.90;;;;;;5091962;28;20043;-59
2021/12/14 10:18:45;;;;;;;112.97;6.22;;;4.20;99.90;;;;;;5092692;28;20107;-59
2021/12/14 10:21:23;;;;;;;111.75;7.93;;;4.30;99.90;;;;;;5092411;28;20021;-58
2021/12/14 10:23:50;;;;;;;86.40;6.88;;;4.10;99.90;;;;;;5092536;28;20387;-58
2021/12/14 10:26:17;;;;;;;222.15;12.75;;;4.20;99.90;;;;;;5092648;28;20016;-59
2021/12/14 10:28:46;;;;;;;67.32;8.38;;;4.30;99.90;;;;;;5092412;28;20023;-59
2021/12/14 10:31:19;;;;;;;120.47;10.93;;;4.50;99.90;;;;;;5092072;28;20112;-59
2021/12/14 10:33:45;;;;;;;124.63;8.45;;;4.60;99.90;;;;;;5092131;28;20020;-59
2021/12/14 10:36:34;;;;;;;27.40;5.68;;;4.40;99.90;;;;;;5091838;28;20077;-58
2021/12/14 10:44:13;;;;;;;187.02;11.57;;;4.90;99.90;;;;;;5092310;28;20046;-58
2021/12/14 10:46:45;;;;;;;266.58;13.93;;;4.80;99.90;;;;;;5090630;28;20020;-56
2021/12/14 10:49:17;;;;;;;155.55;9.60;;;4.60;99.90;;;;;;5091860;28;20023;-59
2021/12/14 10:51:45;;;;;;;128.65;8.57;;;4.50;99.90;;;;;;5091903;28;20024;-59
2021/12/14 10:54:13;;;;;;;108.38;8.35;;;4.60;99.90;;;;;;5091765;28;20390;-58
2021/12/14 10:56:54;;;;;;;105.45;8.50;;;4.70;99.90;;;;;;5091766;28;20020;-57
2021/12/14 10:59:23;;;;;;;107.05;9.45;;;4.80;99.90;;;;;;5091831;28;20024;-56
2021/12/14 11:01:51;;;;;;;202.90;10.60;;;4.90;99.90;;;;;;5091536;28;20166;-59
2021/12/14 11:04:38;;;;;;;70.50;7.43;;;4.70;99.90;;;;;;5091682;28;20103;-57
2021/12/14 11:07:11;;;;;;;197.85;10.55;;;4.50;99.90;;;;;;5091731;28;20515;-59
2021/12/14 11:09:52;;;;;;;220.65;11.73;;;4.40;99.90;;;;;;5091375;28;20031;-59
2021/12/14 11:12:26;;;;;;;134.25;10.15;;;4.50;99.90;;;;;;5091453;28;20165;-58
2021/12/14 11:15:05;;;;;;;125.35;9.52;;;4.50;99.90;;;;;;5091342;28;20020;-58
2021/12/14 11:20:28;;;;;;;471.92;19.42;;;4.80;99.90;;;;;;5091887;28;20059;-58
2021/12/14 11:22:54;;;;;;;95.22;9.23;;;4.70;99.90;;;;;;5091340;28;20028;-58
2021/12/14 11:25:25;;;;;;;556.70;101.60;;;4.70;99.90;;;;;;5091112;28;20035;-59
2021/12/14 11:28:07;;;;;;;293.30;27.05;;;4.70;99.90;;;;;;5091395;28;20042;-59
2021/12/14 11:30:42;;;;;;;438.40;19.02;;;4.70;99.90;;;;;;5091703;28;20020;-58
2021/12/14 11:33:08;;;;;;;327.08;15.35;;;4.70;99.90;;;;;;5090862;28;20008;-58
2021/12/14 11:35:41;;;;;;;267.75;33.47;;;4.60;99.90;;;;;;5091108;28;20016;-59
2021/12/14 11:38:37;;;;;;;408.98;16.45;;;4.80;99.90;;;;;;5090763;28;20031;-58
2021/12/14 11:41:35;;;;;;;155.32;10.07;;;5.00;99.90;;;;;;5090730;28;20054;-58
2021/12/14 11:44:05;;;;;;;113.53;16.88;;;5.00;99.90;;;;;;5091188;28;20477;-58
2021/12/14 11:46:44;;;;;;;193.48;13.60;;;5.10;99.90;;;;;;5090481;28;20028;-58
2021/12/14 11:49:10;;;;;;;188.32;14.23;;;5.10;99.90;;;;;;5090731;28;20498;-58
2021/12/14 11:51:36;;;;;;;153.50;20.58;;;5.20;99.90;;;;;;5091056;28;20028;-58
2021/12/14 11:54:02;;;;;;;355.05;21.70;;;5.20;99.90;;;;;;5090361;28;20036;-57
2021/12/14 11:56:31;;;;;;;151.93;10.05;;;5.40;99.90;;;;;;5090791;28;20382;-59
2021/12/14 11:59:04;;;;;;;284.95;13.57;;;5.60;99.90;;;;;;5090939;28;20020;-59
2021/12/14 12:01:32;;;;;;;44.78;7.57;;;5.40;99.90;;;;;;5090533;28;20020;-59
2021/12/14 12:04:01;;;;;;;246.25;11.40;;;5.70;99.90;;;;;;5090758;28;20176;-58
2021/12/14 12:06:45;;;;;;;163.02;14.77;;;5.50;99.90;;;;;;5090527;28;20024;-58
2021/12/14 12:09:32;;;;;;;210.18;14.20;;;5.50;99.90;;;;;;5090537;28;20028;-59
2021/12/14 12:12:01;;;;;;;145.85;9.55;;;5.40;99.90;;;;;;5090628;28;20020;-59
2021/12/14 12:14:29;;;;;;;162.85;10.68;;;5.30;99.90;;;;;;5090522;28;20077;-56
2021/12/14 12:17:17;;;;;;;120.95;8.48;;;5.30;99.90;;;;;;5090182;28;20522;-59
2021/12/14 12:19:56;;;;;;;135.55;9.23;;;5.20;99.90;;;;;;5086064;28;20064;-59
2021/12/14 12:22:22;;;;;;;105.63;7.65;;;5.20;99.90;;;;;;5090362;28;20016;-59
2021/12/14 12:24:47;;;;;;;59.42;6.65;;;5.10;99.90;;;;;;5090463;28;20078;-58
2021/12/14 12:27:40;;;;;;;25.38;5.70;;;5.10;99.90;;;;;;5090064;28;20356;-58
2021/12/14 12:30:38;;;;;;;4.35;3.95;;;5.50;99.90;;;;;;5090298;28;20107;-59
2021/12/14 12:33:25;;;;;;;85.50;6.15;;;5.90;99.90;;;;;;5090310;28;20012;-59
2021/12/14 12:35:54;;;;;;;53.95;6.05;;;5.80;99.90;;;;;;5090332;28;20032;-58
2021/12/14 12:38:27;;;;;;;10.20;4.47;;;6.00;99.90;;;;;;5089985;28;20035;-58
2021/12/14 12:41:12;;;;;;;19.55;5.03;;;6.00;99.90;;;;;;5090332;28;20016;-59
2021/12/14 12:43:46;;;;;;;63.05;6.05;;;6.20;99.90;;;;;;5089820;28;20070;-59
2021/12/14 12:46:18;;;;;;;17.67;5.43;;;6.20;99.90;;;;;;5089997;28;20024;-59
2021/12/14 12:48:55;;;;;;;39.58;12.95;;;6.20;99.90;;;;;;5090113;28;20024;-59
2021/12/14 12:52:12;;;;;;;82.97;8.38;;;6.00;99.90;;;;;;5090042;28;20099;-58
2021/12/14 12:54:51;;;;;;;67.10;13.55;;;5.40;99.90;;;;;;5064368;28;20032;-57
2021/12/14 12:57:30;;;;;;;124.95;8.75;;;5.30;99.90;;;;;;5090190;28;20111;-57
2021/12/14 13:00:11;;;;;;;51.22;12.82;;;5.20;99.90;;;;;;5094027;28;20739;-58
2021/12/14 13:02:36;;;;;;;98.68;10.85;;;5.20;99.90;;;;;;5093820;28;20120;-58
2021/12/14 13:05:08;;;;;;;16.15;7.13;;;5.10;99.90;;;;;;5093888;28;20554;-59
2021/12/14 13:07:36;;;;;;;34.80;7.28;;;5.20;99.90;;;;;;5093787;28;20024;-59
2021/12/14 13:10:09;;;;;;;87.88;8.98;;;5.20;99.90;;;;;;5092302;28;20028;-57
2021/12/14 13:12:49;;;;;;;9.27;6.77;;;5.20;99.90;;;;;;5093789;28;20093;-57
2021/12/14 13:15:36;;;;;;;28.40;7.03;;;5.20;99.90;;;;;;5092046;28;20044;-58
2021/12/14 13:18:33;;;;;;;33.08;7.03;;;5.30;99.90;;;;;;5093706;28;20469;-58
2021/12/14 13:21:17;;;;;;;61.63;7.47;;;5.20;99.90;;;;;;5093270;28;20024;-56
2021/12/14 13:23:42;;;;;;;11.02;7.20;;;5.00;99.90;;;;;;5093494;28;20356;-56
2021/12/14 13:26:35;;;;;;;25.85;10.75;;;5.00;99.90;;;;;;5093582;28;20050;-59
2021/12/14 13:29:04;;;;;;;7.97;7.18;;;5.00;99.90;;;;;;5093544;28;20079;-58
2021/12/14 13:31:41;;;;;;;8.27;7.03;;;5.10;99.90;;;;;;5093493;28;20081;-58
2021/12/14 13:34:12;;;;;;;23.58;8.45;;;5.20;99.90;;;;;;5093151;28;20020;-58
2021/12/14 13:36:39;;;;;;;46.67;7.28;;;5.20;99.90;;;;;;5093088;28;20040;-57
2021/12/14 13:39:07;;;;;;;8.27;7.57;;;5.20;99.90;;;;;;5092856;28;20070;-58
2021/12/14 13:42:07;;;;;;;12.57;7.80;;;4.90;99.90;;;;;;5093345;28;20016;-57
2021/12/14 13:44:38;;;;;;;8.65;7.40;;;4.80;99.90;;;;;;5023332;28;20035;-57
2021/12/14 13:47:08;;;;;;;19.27;7.82;;;4.90;99.90;;;;;;5093291;28;20097;-58
2021/12/14 13:49:35;;;;;;;21.15;7.65;;;4.90;99.90;;;;;;5074602;28;20475;-57
2021/12/14 13:52:07;;;;;;;26.92;9.93;;;4.90;99.90;;;;;;5093184;28;20386;-58